Time;durP1;ratioP1;P1;durP2;ratioP2;P2;SDS_P1;SDS_P2;PMS_P1;PMS_P2;Temp;Humidity;BMP_temperature;BMP_pressure;BME280_temperature;BME280_humidity;BME280_pressure;Samples;Min_cycle;Max_cycle;Signal;HPM_P1;HPM_P2
2023/05/24 00:00:56;;;;;;;;;;;;;;;20.51;63.09;100129.47;5400521;32;35418;-68
2023/05/24 00:03:59;;;;;;;;;;;;;;;20.14;65.52;100118.34;5392882;32;34851;-70
2023/05/24 00:07:02;;;;;;;;;;;;;;;20.19;65.49;100116.16;5407596;32;34188;-75
2023/05/24 00:10:04;;;;;;;;;;;;;;;19.98;66.42;100108.94;5385028;32;36339;-69
2023/05/24 00:13:06;;;;;;;;;;;;;;;19.96;66.22;100110.88;5388974;32;35402;-75
2023/05/24 00:16:08;;;;;;;;;;;;;;;19.90;66.51;100103.41;5400556;32;35166;-76
2023/05/24 00:19:10;;;;;;;;;;;;;;;19.81;66.02;100104.16;5396715;32;35106;-75
2023/05/24 00:22:13;;;;;;;;;;;;;;;20.40;63.97;100102.81;5391688;32;35024;-70
2023/05/24 00:25:15;;;;;;;;;;;;;;;19.77;66.38;100096.53;5380777;32;35315;-69
2023/05/24 00:28:17;;;;;;;;;;;;;;;19.92;65.48;100098.78;5389250;32;44984;-73
2023/05/24 00:31:19;;;;;;;;;;;;;;;19.82;64.75;100089.84;5381586;32;34877;-69
2023/05/24 00:34:21;;;;;;;;;;;;;;;20.06;63.99;100097.66;5376461;32;35567;-70
2023/05/24 00:37:23;;;;;;;;;;;;;;;20.02;63.45;100091.69;5371357;32;36226;-69
2023/05/24 00:40:25;;;;;;;;;;;;;;;20.78;60.36;100083.56;5374276;32;35466;-76
2023/05/24 00:43:27;;;;;;;;;;;;;;;20.71;60.37;100080.56;5385897;32;34949;-70
2023/05/24 00:46:30;;;;;;;;;;;;;;;20.68;60.39;100085.34;5389767;32;35436;-75
2023/05/24 00:49:32;;;;;;;;;;;;;;;20.52;60.37;100083.12;5375843;32;35096;-71
2023/05/24 00:52:35;;;;;;;;;;;;;;;20.18;61.71;100096.62;5386050;32;35565;-69
2023/05/24 00:55:37;;;;;;;;;;;;;;;20.07;61.82;100091.31;5351935;32;886583;-71
2023/05/24 00:58:38;;;;;;;;;;;;;;;19.96;62.11;100086.88;5383260;32;34731;-76
2023/05/24 01:01:41;;;;;;;;;;;;;;;19.97;61.82;100091.25;5379254;32;34681;-77
2023/05/24 01:04:43;;;;;;;;;;;;;;;20.38;60.93;100094.09;5386228;32;34855;-71
2023/05/24 01:07:52;;;;;;;;;;;;;;;19.37;64.10;100086.41;5392847;32;43481;-75
2023/05/24 01:10:55;;;;;;;;;;;;;;;19.91;62.18;100094.44;5393148;32;34514;-70
2023/05/24 01:14:16;;;;;;;;;;;;;;;20.53;59.91;100091.00;5386972;32;34836;-70
2023/05/24 01:17:20;;;;;;;;;;;;;;;20.41;60.11;100092.00;5389240;32;45483;-75
2023/05/24 01:20:22;;;;;;;;;;;;;;;19.84;61.52;100093.25;5381866;32;34682;-70
2023/05/24 01:23:33;;;;;;;;;;;;;;;20.29;60.17;100093.06;5380638;32;34937;-76
2023/05/24 01:26:35;;;;;;;;;;;;;;;19.79;61.81;100092.78;5389766;32;35397;-76
2023/05/24 01:29:37;;;;;;;;;;;;;;;19.74;61.59;100087.81;5397773;32;35943;-74
2023/05/24 01:32:39;;;;;;;;;;;;;;;19.31;63.74;100090.41;5392199;32;35508;-77
2023/05/24 01:35:41;;;;;;;;;;;;;;;19.83;61.40;100088.88;5363037;32;35036;-71
2023/05/24 01:38:43;;;;;;;;;;;;;;;20.32;60.01;100082.13;5376427;32;34892;-71
2023/05/24 01:42:05;;;;;;;;;;;;;;;20.50;58.83;100069.91;5402336;32;44785;-71
2023/05/24 01:45:07;;;;;;;;;;;;;;;19.89;61.42;100084.84;5395149;32;35438;-76
2023/05/24 01:48:12;;;;;;;;;;;;;;;20.20;60.69;100075.97;5378723;32;34752;-69
2023/05/24 01:51:16;;;;;;;;;;;;;;;20.35;59.73;100075.66;5383685;32;34972;-74
2023/05/24 01:54:22;;;;;;;;;;;;;;;20.19;60.52;100076.97;5395467;32;44890;-70
2023/05/24 01:57:24;;;;;;;;;;;;;;;19.42;62.60;100070.91;5376483;32;35024;-75
2023/05/24 02:00:26;;;;;;;;;;;;;;;19.98;61.14;100068.94;5375572;32;34631;-70
2023/05/24 02:03:28;;;;;;;;;;;;;;;19.94;60.76;100071.97;5379954;32;35426;-69
2023/05/24 02:06:30;;;;;;;;;;;;;;;20.17;60.83;100072.75;5370507;32;34913;-75
2023/05/24 02:09:32;;;;;;;;;;;;;;;19.81;62.17;100071.31;5386161;32;33845;-70
2023/05/24 02:12:34;;;;;;;;;;;;;;;19.45;64.42;100079.50;5380583;32;34652;-74
2023/05/24 02:15:36;;;;;;;;;;;;;;;19.49;64.30;100083.59;5375719;32;34357;-74
2023/05/24 02:18:39;;;;;;;;;;;;;;;19.77;63.04;100075.19;5401233;32;34963;-68
2023/05/24 02:21:41;;;;;;;;;;;;;;;19.26;65.45;100083.78;5383071;32;35413;-74
2023/05/24 02:24:42;;;;;;;;;;;;;;;19.50;64.25;100079.09;5387901;32;35667;-75
2023/05/24 02:27:45;;;;;;;;;;;;;;;19.60;64.50;100080.09;5394336;32;35310;-69
2023/05/24 02:30:48;;;;;;;;;;;;;;;19.41;65.06;100074.53;5388782;32;45066;-75
2023/05/24 02:33:50;;;;;;;;;;;;;;;19.27;66.40;100083.63;5392178;32;34993;-74
2023/05/24 02:36:55;;;;;;;;;;;;;;;20.02;63.25;100081.03;5369725;32;35611;-75
2023/05/24 02:39:57;;;;;;;;;;;;;;;20.11;63.10;100073.25;5385593;32;34890;-74
2023/05/24 02:42:59;;;;;;;;;;;;;;;19.64;64.64;100070.00;5393306;32;36315;-76
2023/05/24 02:46:01;;;;;;;;;;;;;;;19.68;64.39;100074.13;5385891;32;35471;-74
2023/05/24 02:49:03;;;;;;;;;;;;;;;20.21;62.83;100067.00;5360804;32;35423;-74
2023/05/24 02:52:06;;;;;;;;;;;;;;;19.71;64.96;100071.22;5382910;32;33655;-75
2023/05/24 02:55:08;;;;;;;;;;;;;;;19.59;65.86;100067.75;5388602;32;35410;-69
2023/05/24 02:58:11;;;;;;;;;;;;;;;19.13;67.55;100071.44;5376831;32;35260;-69
2023/05/24 03:01:13;;;;;;;;;;;;;;;19.26;67.40;100067.78;5378671;32;35291;-75
2023/05/24 03:04:15;;;;;;;;;;;;;;;19.48;66.44;100075.72;5382307;32;33545;-74
2023/05/24 03:07:16;;;;;;;;;;;;;;;19.11;67.29;100075.16;5382561;32;44392;-69
2023/05/24 03:10:18;;;;;;;;;;;;;;;18.69;69.45;100082.91;5379768;32;34804;-69
2023/05/24 03:13:20;;;;;;;;;;;;;;;19.01;69.61;100090.19;5386895;32;34796;-74
2023/05/24 03:16:24;;;;;;;;;;;;;;;19.38;66.72;100091.59;5400559;32;35508;-69
2023/05/24 03:19:26;;;;;;;;;;;;;;;18.67;70.84;100085.66;5393854;32;35404;-69
2023/05/24 03:22:28;;;;;;;;;;;;;;;18.66;70.89;100088.41;5395774;32;33843;-74
2023/05/24 03:25:30;;;;;;;;;;;;;;;19.14;69.13;100085.59;5382584;32;35878;-70
2023/05/24 03:28:32;;;;;;;;;;;;;;;18.93;69.88;100082.78;5401103;32;34919;-75
2023/05/24 03:31:34;;;;;;;;;;;;;;;19.92;66.07;100087.28;5384732;32;34304;-75
2023/05/24 03:34:36;;;;;;;;;;;;;;;19.47;67.41;100074.87;5378991;32;35287;-75
2023/05/24 03:37:38;;;;;;;;;;;;;;;19.71;66.92;100076.56;5375430;32;35726;-77
2023/05/24 03:40:40;;;;;;;;;;;;;;;19.11;69.19;100068.00;5390077;32;35784;-71
2023/05/24 03:43:43;;;;;;;;;;;;;;;18.46;72.75;100086.44;5402467;32;35558;-76
2023/05/24 03:46:45;;;;;;;;;;;;;;;19.00;70.77;100091.13;5374097;32;37179;-76
2023/05/24 03:49:47;;;;;;;;;;;;;;;18.65;72.13;100087.56;5372727;32;44955;-75
2023/05/24 03:52:49;;;;;;;;;;;;;;;18.71;71.55;100096.09;5377445;32;35047;-76
2023/05/24 03:55:51;;;;;;;;;;;;;;;18.99;70.67;100100.09;5397191;32;34384;-71
2023/05/24 03:58:53;;;;;;;;;;;;;;;19.18;69.62;100098.53;5402941;32;34457;-71
2023/05/24 04:01:55;;;;;;;;;;;;;;;19.51;68.62;100101.28;5381619;32;35481;-70
2023/05/24 04:04:57;;;;;;;;;;;;;;;19.92;66.49;100108.63;5391280;32;35020;-75
2023/05/24 04:07:59;;;;;;;;;;;;;;;20.24;65.22;100109.44;5394103;32;35080;-76
2023/05/24 04:11:01;;;;;;;;;;;;;;;19.24;68.75;100121.16;5403417;32;34158;-71
2023/05/24 04:14:03;;;;;;;;;;;;;;;20.18;65.64;100112.63;5396229;32;36713;-70
2023/05/24 04:17:06;;;;;;;;;;;;;;;20.45;64.44;100119.31;5389004;32;35399;-67
2023/05/24 04:20:09;;;;;;;;;;;;;;;20.32;64.49;100119.47;5397897;32;35433;-72
2023/05/24 04:23:11;;;;;;;;;;;;;;;20.27;64.94;100121.69;5395897;32;35401;-70
2023/05/24 04:26:13;;;;;;;;;;;;;;;19.71;66.66;100130.72;5404179;32;34273;-76
2023/05/24 04:29:15;;;;;;;;;;;;;;;19.12;69.75;100133.62;5376333;32;44628;-75
2023/05/24 04:32:18;;;;;;;;;;;;;;;19.26;71.12;100127.25;5393076;32;44714;-72
2023/05/24 04:35:20;;;;;;;;;;;;;;;19.97;67.66;100141.94;5364099;32;36062;-75
2023/05/24 04:38:23;;;;;;;;;;;;;;;19.67;68.74;100134.59;5374837;32;36032;-76
2023/05/24 04:41:26;;;;;;;;;;;;;;;19.87;67.96;100141.00;5379289;32;34673;-70
2023/05/24 04:44:27;;;;;;;;;;;;;;;20.11;66.91;100139.94;5384945;32;34690;-75
2023/05/24 04:47:30;;;;;;;;;;;;;;;20.07;67.73;100131.34;5379291;32;36925;-69
2023/05/24 04:50:34;;;;;;;;;;;;;;;19.87;68.67;100138.31;5391174;32;34871;-77
2023/05/24 04:53:37;;;;;;;;;;;;;;;20.12;68.00;100139.81;5400969;32;35266;-69
2023/05/24 04:56:39;;;;;;;;;;;;;;;20.39;67.15;100134.00;5384380;32;35030;-69
2023/05/24 04:59:42;;;;;;;;;;;;;;;21.41;63.56;100129.72;5380249;32;34676;-75
2023/05/24 05:02:44;;;;;;;;;;;;;;;21.58;61.20;100136.25;5395936;32;34199;-71
2023/05/24 05:05:46;;;;;;;;;;;;;;;22.47;58.77;100136.22;5381975;32;45136;-76
2023/05/24 05:08:49;;;;;;;;;;;;;;;21.59;60.58;100137.94;5403749;32;35289;-70
2023/05/24 05:11:51;;;;;;;;;;;;;;;20.21;65.98;100149.72;5391337;32;34666;-70
2023/05/24 05:14:54;;;;;;;;;;;;;;;20.86;63.98;100149.66;5403439;32;35082;-74
2023/05/24 05:17:56;;;;;;;;;;;;;;;20.48;65.98;100153.75;5386113;32;34652;-75
2023/05/24 05:20:58;;;;;;;;;;;;;;;20.57;64.71;100150.31;5392634;32;34965;-70
2023/05/24 05:24:01;;;;;;;;;;;;;;;20.07;66.97;100151.84;5389115;32;33020;-70
2023/05/24 05:27:03;;;;;;;;;;;;;;;20.35;66.07;100156.59;5382821;32;36986;-72
2023/05/24 05:30:05;;;;;;;;;;;;;;;19.45;68.48;100135.47;5402480;32;34885;-73
2023/05/24 05:33:08;;;;;;;;;;;;;;;19.90;67.75;100150.53;5386545;32;35008;-73
2023/05/24 05:36:10;;;;;;;;;;;;;;;20.23;65.73;100157.62;5364715;32;34278;-73
2023/05/24 05:39:13;;;;;;;;;;;;;;;20.14;66.41;100150.34;5386204;32;34305;-74
2023/05/24 05:42:15;;;;;;;;;;;;;;;20.11;66.48;100155.97;5379801;32;44759;-72
2023/05/24 05:45:17;;;;;;;;;;;;;;;20.18;66.18;100158.00;5393199;32;35497;-68
2023/05/24 05:48:19;;;;;;;;;;;;;;;20.95;63.64;100148.87;5378398;32;34339;-73
2023/05/24 05:51:21;;;;;;;;;;;;;;;21.78;59.73;100154.03;5395943;32;34693;-74
2023/05/24 05:54:24;;;;;;;;;;;;;;;21.35;61.20;100155.16;5398767;32;35560;-74
2023/05/24 05:57:26;;;;;;;;;;;;;;;22.47;57.79;100155.78;5392691;32;35765;-63
2023/05/24 06:00:28;;;;;;;;;;;;;;;22.27;58.52;100156.78;5385981;32;35454;-72
2023/05/24 06:03:30;;;;;;;;;;;;;;;23.33;55.11;100153.09;5378973;32;36242;-68
2023/05/24 06:06:35;;;;;;;;;;;;;;;22.65;57.27;100154.09;5384011;32;34109;-80
2023/05/24 06:09:37;;;;;;;;;;;;;;;22.35;57.13;100159.63;5387188;32;35624;-75
2023/05/24 06:12:39;;;;;;;;;;;;;;;23.44;53.35;100167.19;5389271;32;33984;-78
2023/05/24 06:15:41;;;;;;;;;;;;;;;23.85;53.61;100164.16;5386286;32;36101;-72
2023/05/24 06:18:43;;;;;;;;;;;;;;;24.04;51.44;100169.41;5387121;32;33625;-73
2023/05/24 06:22:05;;;;;;;;;;;;;;;21.97;57.54;100165.75;5391817;32;37285;-66
2023/05/24 06:25:07;;;;;;;;;;;;;;;23.82;52.56;100172.50;5395380;32;34404;-80
2023/05/24 06:28:09;;;;;;;;;;;;;;;23.67;52.70;100172.16;5402890;32;34907;-73
2023/05/24 06:31:12;;;;;;;;;;;;;;;24.36;50.47;100173.44;5382176;32;34435;-87
2023/05/24 06:34:16;;;;;;;;;;;;;;;22.87;54.72;100182.44;5396094;32;35362;-77
2023/05/24 06:37:23;;;;;;;;;;;;;;;24.04;51.35;100186.37;5370501;32;43706;-71
2023/05/24 06:40:26;;;;;;;;;;;;;;;22.74;54.58;100186.37;5395147;32;34126;-74
2023/05/24 06:43:28;;;;;;;;;;;;;;;23.12;54.16;100189.03;5400326;32;34167;-72
2023/05/24 06:46:30;;;;;;;;;;;;;;;23.19;54.01;100187.44;5394850;32;34312;-62
2023/05/24 06:49:35;;;;;;;;;;;;;;;23.25;53.74;100177.97;5383732;32;34346;-75
2023/05/24 06:52:37;;;;;;;;;;;;;;;22.97;53.85;100196.66;5370297;32;34178;-66
2023/05/24 06:55:39;;;;;;;;;;;;;;;22.10;57.28;100196.66;5381349;32;33054;-65
2023/05/24 06:58:41;;;;;;;;;;;;;;;21.75;58.16;100197.09;5385869;32;34892;-66
2023/05/24 07:01:43;;;;;;;;;;;;;;;21.74;58.61;100206.09;5390730;32;35901;-78
2023/05/24 07:04:46;;;;;;;;;;;;;;;23.48;54.18;100191.84;5396533;32;44463;-65
2023/05/24 07:07:48;;;;;;;;;;;;;;;24.53;50.35;100191.38;5395189;32;35910;-66
2023/05/24 07:10:50;;;;;;;;;;;;;;;24.26;50.45;100200.34;5406326;32;36021;-64
2023/05/24 07:13:53;;;;;;;;;;;;;;;23.62;52.26;100201.28;5385140;32;35120;-74
2023/05/24 07:16:58;;;;;;;;;;;;;;;25.50;46.88;100199.31;5386265;32;33230;-72
2023/05/24 07:20:01;;;;;;;;;;;;;;;24.70;48.87;100203.97;5396758;32;35073;-67
2023/05/24 07:23:03;;;;;;;;;;;;;;;26.17;45.67;100204.81;5411579;32;35978;-74
2023/05/24 07:26:05;;;;;;;;;;;;;;;25.13;47.07;100213.06;5388074;32;35440;-69
2023/05/24 07:29:08;;;;;;;;;;;;;;;26.39;44.61;100208.72;5384736;32;35325;-78
2023/05/24 07:32:10;;;;;;;;;;;;;;;25.75;46.60;100213.75;5376942;32;34327;-66
2023/05/24 07:35:12;;;;;;;;;;;;;;;24.61;48.94;100226.41;5359188;32;34407;-66
2023/05/24 07:38:14;;;;;;;;;;;;;;;26.88;43.34;100215.00;5369533;32;34592;-73
2023/05/24 07:41:17;;;;;;;;;;;;;;;27.22;41.94;100217.53;5373605;32;43782;-70
2023/05/24 07:44:18;;;;;;;;;;;;;;;27.15;42.58;100215.69;5388031;32;35336;-71
2023/05/24 07:47:20;;;;;;;;;;;;;;;27.41;41.52;100221.69;5383867;32;33973;-65
2023/05/24 07:50:25;;;;;;;;;;;;;;;27.87;41.18;100211.09;5375619;32;35317;-68
2023/05/24 07:53:28;;;;;;;;;;;;;;;29.47;37.55;100218.31;5396035;32;36967;-73
2023/05/24 07:56:31;;;;;;;;;;;;;;;29.21;37.51;100216.06;5385164;32;35587;-65
2023/05/24 07:59:33;;;;;;;;;;;;;;;27.87;39.65;100211.09;5396054;32;35234;-70
2023/05/24 08:02:35;;;;;;;;;;;;;;;26.77;41.85;100225.28;5406855;32;34239;-64
2023/05/24 08:05:37;;;;;;;;;;;;;;;27.51;41.54;100226.91;5401731;32;34114;-75
2023/05/24 08:08:39;;;;;;;;;;;;;;;27.18;41.92;100232.38;5400523;32;34255;-77
2023/05/24 08:11:42;;;;;;;;;;;;;;;26.75;43.20;100228.16;5380653;32;36119;-70
2023/05/24 08:14:44;;;;;;;;;;;;;;;26.56;43.20;100234.72;5395876;32;34132;-72
2023/05/24 08:17:46;;;;;;;;;;;;;;;26.83;42.86;100232.69;5388426;32;43019;-67
2023/05/24 08:20:48;;;;;;;;;;;;;;;26.45;43.37;100233.16;5385129;32;34968;-66
2023/05/24 08:23:50;;;;;;;;;;;;;;;26.65;42.82;100235.56;5393243;32;34337;-68
2023/05/24 08:26:53;;;;;;;;;;;;;;;26.93;42.18;100234.22;5379054;32;34887;-64
2023/05/24 08:29:55;;;;;;;;;;;;;;;27.59;41.44;100234.97;5388980;32;34174;-68
2023/05/24 08:32:58;;;;;;;;;;;;;;;27.01;42.61;100236.06;5384934;32;34948;-68
2023/05/24 08:36:00;;;;;;;;;;;;;;;26.96;41.72;100244.66;5378569;32;35943;-73
2023/05/24 08:39:03;;;;;;;;;;;;;;;26.36;43.97;100255.69;5368240;32;34553;-73
2023/05/24 08:42:06;;;;;;;;;;;;;;;26.81;42.79;100251.75;5388439;32;35650;-73
2023/05/24 08:45:11;;;;;;;;;;;;;;;26.43;42.98;100256.75;5390706;32;35360;-76
2023/05/24 08:48:16;;;;;;;;;;;;;;;26.77;42.52;100261.16;5368731;32;44180;-79
2023/05/24 08:51:19;;;;;;;;;;;;;;;25.05;45.96;100272.13;5405955;32;35395;-68
2023/05/24 08:54:21;;;;;;;;;;;;;;;25.21;45.64;100274.97;5377448;32;34411;-73
2023/05/24 08:57:26;;;;;;;;;;;;;;;24.97;46.07;100285.50;5398069;32;35497;-79
2023/05/24 09:00:28;;;;;;;;;;;;;;;26.39;42.83;100268.81;5394116;32;37861;-74
2023/05/24 09:03:30;;;;;;;;;;;;;;;26.46;43.31;100277.13;5393245;32;34347;-73
2023/05/24 09:06:32;;;;;;;;;;;;;;;27.83;38.88;100274.59;5398554;32;34413;-68
2023/05/24 09:09:34;;;;;;;;;;;;;;;29.41;36.10;100278.63;5373455;32;33967;-69
2023/05/24 09:12:37;;;;;;;;;;;;;;;28.11;37.74;100274.13;5398758;32;33750;-77
2023/05/24 09:15:41;;;;;;;;;;;;;;;28.34;37.61;100272.34;5372237;32;33752;-74
2023/05/24 09:18:44;;;;;;;;;;;;;;;28.55;37.19;100269.00;5406642;32;34263;-71
2023/05/24 09:21:48;;;;;;;;;;;;;;;29.25;36.04;100270.69;5373301;32;44774;-68
2023/05/24 09:24:57;;;;;;;;;;;;;;;28.33;37.18;100266.09;5378217;32;34413;-67
2023/05/24 09:28:00;;;;;;;;;;;;;;;29.67;35.19;100265.50;5389761;32;34007;-71
2023/05/24 09:31:03;;;;;;;;;;;;;;;29.02;36.56;100265.28;5388500;32;35760;-68
2023/05/24 09:34:10;;;;;;;;;;;;;;;27.38;38.82;100264.37;5397835;32;33635;-69
2023/05/24 09:37:16;;;;;;;;;;;;;;;29.42;36.15;100262.19;5366324;32;34198;-71
2023/05/24 09:40:19;;;;;;;;;;;;;;;29.12;36.39;100272.16;5375930;32;44822;-69
2023/05/24 09:43:21;;;;;;;;;;;;;;;28.71;36.29;100270.75;5397303;32;33965;-93
2023/05/24 09:46:28;;;;;;;;;;;;;;;29.80;35.35;100264.84;5401846;32;36115;-84
2023/05/24 09:49:31;;;;;;;;;;;;;;;30.65;34.38;100258.78;5379674;32;35445;-70
2023/05/24 09:52:38;;;;;;;;;;;;;;;28.98;36.39;100264.84;5384383;32;34670;-67
2023/05/24 09:55:40;;;;;;;;;;;;;;;28.46;36.92;100257.37;5394048;32;33694;-82
2023/05/24 09:58:44;;;;;;;;;;;;;;;29.59;34.48;100270.19;5396255;32;34196;-68
2023/05/24 10:01:46;;;;;;;;;;;;;;;29.49;33.92;100264.16;5389179;32;44360;-70
2023/05/24 10:04:49;;;;;;;;;;;;;;;29.09;35.55;100264.37;5406395;32;34586;-64
2023/05/24 10:07:52;;;;;;;;;;;;;;;30.34;33.54;100266.41;5395585;32;34322;-75
2023/05/24 10:10:54;;;;;;;;;;;;;;;32.02;30.60;100269.28;5373287;32;34439;-67
2023/05/24 10:13:57;;;;;;;;;;;;;;;29.61;34.23;100260.84;5404637;32;34962;-68
2023/05/24 10:16:59;;;;;;;;;;;;;;;30.66;32.92;100259.66;5400642;32;34360;-67
2023/05/24 10:20:05;;;;;;;;;;;;;;;30.78;32.80;100263.53;5378346;32;36044;-67
2023/05/24 10:23:08;;;;;;;;;;;;;;;31.04;32.05;100256.66;5404090;32;35487;-76
2023/05/24 10:26:10;;;;;;;;;;;;;;;31.88;30.70;100254.78;5395950;32;35976;-76
2023/05/24 10:29:16;;;;;;;;;;;;;;;31.34;31.48;100252.75;5406231;32;35660;-66
2023/05/24 10:32:18;;;;;;;;;;;;;;;31.30;31.44;100256.06;5408943;32;44571;-73
2023/05/24 10:35:21;;;;;;;;;;;;;;;31.51;31.06;100239.72;5369933;32;35568;-66
2023/05/24 10:38:23;;;;;;;;;;;;;;;29.30;34.98;100263.66;5395903;32;35504;-65
2023/05/24 10:41:28;;;;;;;;;;;;;;;29.29;33.56;100256.56;5397126;32;34211;-66
2023/05/24 10:44:30;;;;;;;;;;;;;;;30.53;31.95;100249.50;5403212;32;35403;-84
2023/05/24 10:47:33;;;;;;;;;;;;;;;31.87;29.93;100246.81;5401177;32;35812;-75
2023/05/24 10:50:38;;;;;;;;;;;;;;;32.54;28.76;100237.88;5381704;32;35402;-66
2023/05/24 10:53:41;;;;;;;;;;;;;;;33.87;27.15;100233.16;5405086;32;35419;-70
2023/05/24 10:56:45;;;;;;;;;;;;;;;34.17;26.59;100222.59;5402038;32;35314;-71
2023/05/24 10:59:50;;;;;;;;;;;;;;;31.84;29.53;100234.50;5382867;32;46079;-78
2023/05/24 11:03:00;;;;;;;;;;;;;;;29.52;33.95;100244.88;5401608;32;34215;-79
2023/05/24 11:06:02;;;;;;;;;;;;;;;31.36;30.61;100249.84;5374151;32;34481;-68
2023/05/24 11:09:07;;;;;;;;;;;;;;;30.01;32.30;100245.09;5388383;32;34960;-76
2023/05/24 11:12:10;;;;;;;;;;;;;;;32.87;28.48;100235.22;5393343;32;34481;-75
2023/05/24 11:15:12;;;;;;;;;;;;;;;31.16;31.18;100234.22;5392139;32;34304;-87
2023/05/24 11:18:14;;;;;;;;;;;;;;;31.43;30.20;100238.00;5386454;32;34635;-73
2023/05/24 11:21:17;;;;;;;;;;;;;;;31.36;30.02;100241.69;5396193;32;46614;-76
2023/05/24 11:24:20;;;;;;;;;;;;;;;31.82;29.63;100236.56;5391137;32;35196;-68
2023/05/24 11:27:23;;;;;;;;;;;;;;;31.68;29.24;100230.19;5384434;32;36547;-75
2023/05/24 11:30:25;;;;;;;;;;;;;;;32.80;28.43;100229.75;5403763;32;34256;-70
2023/05/24 11:33:27;;;;;;;;;;;;;;;33.85;26.94;100208.84;5400878;32;34978;-64
2023/05/24 11:36:30;;;;;;;;;;;;;;;34.51;26.03;100207.69;5382759;32;35749;-79
2023/05/24 11:39:33;;;;;;;;;;;;;;;30.24;32.56;100223.31;5402664;32;34945;-67
2023/05/24 11:42:38;;;;;;;;;;;;;;;34.04;27.56;100200.84;5404729;32;34697;-70
2023/05/24 11:45:43;;;;;;;;;;;;;;;33.58;27.88;100215.47;5411198;32;35399;-69
2023/05/24 11:48:58;;;;;;;;;;;;;;;33.66;26.95;100209.78;5329441;32;34127;-68
2023/05/24 11:52:00;;;;;;;;;;;;;;;33.13;27.63;100198.97;5328619;32;34322;-82
2023/05/24 11:55:03;;;;;;;;;;;;;;;33.05;27.11;100196.47;5332809;32;36311;-81
2023/05/24 11:58:07;;;;;;;;;;;;;;;32.00;28.85;100200.66;5326864;32;35526;-70
2023/05/24 12:01:22;;;;;;;;;;;;;;;31.47;29.56;100212.09;5342189;32;36001;-76
2023/05/24 12:04:24;;;;;;;;;;;;;;;30.76;30.68;100202.38;5344571;32;45350;-70
2023/05/24 12:07:27;;;;;;;;;;;;;;;33.55;27.62;100202.25;5342864;32;35957;-74
2023/05/24 12:10:29;;;;;;;;;;;;;;;32.54;28.55;100200.63;5320910;32;33305;-75
2023/05/24 12:13:31;;;;;;;;;;;;;;;29.96;32.28;100212.34;5335096;32;36440;-70
2023/05/24 12:16:34;;;;;;;;;;;;;;;29.10;33.92;100220.06;5347309;32;36232;-71
2023/05/24 12:19:36;;;;;;;;;;;;;;;28.10;36.07;100213.84;5359083;32;35253;-72
2023/05/24 12:22:38;;;;;;;;;;;;;;;28.28;35.46;100210.88;5414485;32;34411;-67
2023/05/24 12:25:41;;;;;;;;;;;;;;;28.04;35.76;100212.69;5377833;32;34703;-72
2023/05/24 12:28:43;;;;;;;;;;;;;;;28.59;35.51;100217.09;5404189;32;36459;-70
2023/05/24 12:31:47;;;;;;;;;;;;;;;28.50;35.33;100218.19;5402860;32;44750;-72
2023/05/24 12:34:50;;;;;;;;;;;;;;;27.46;37.66;100219.31;5390060;32;35505;-70
2023/05/24 12:37:57;;;;;;;;;;;;;;;28.48;35.50;100212.12;5374777;32;35446;-71
2023/05/24 12:40:59;;;;;;;;;;;;;;;28.11;36.53;100202.03;5392738;32;35886;-70
2023/05/24 12:44:14;;;;;;;;;;;;;;;27.95;36.26;100210.19;5414517;32;34371;-74
2023/05/24 12:47:16;;;;;;;;;;;;;;;28.07;35.87;100200.69;5382628;32;44600;-74
2023/05/24 12:50:20;;;;;;;;;;;;;;;26.99;38.14;100209.28;5404657;32;36610;-75
2023/05/24 12:53:23;;;;;;;;;;;;;;;27.79;36.94;100192.22;5379427;32;32843;-73
2023/05/24 12:56:26;;;;;;;;;;;;;;;27.87;37.02;100194.03;5387614;32;35108;-72
2023/05/24 12:59:30;;;;;;;;;;;;;;;28.01;36.27;100191.44;5412943;32;34420;-75
2023/05/24 13:02:32;;;;;;;;;;;;;;;27.59;36.82;100186.37;5385589;32;34505;-68
2023/05/24 13:05:35;;;;;;;;;;;;;;;27.44;37.30;100182.75;5406109;32;34324;-83
2023/05/24 13:08:37;;;;;;;;;;;;;;;27.09;37.92;100186.69;5404329;32;35457;-71
2023/05/24 13:11:42;;;;;;;;;;;;;;;27.10;38.32;100185.69;5407564;32;34223;-69
2023/05/24 13:14:44;;;;;;;;;;;;;;;27.76;36.60;100189.91;5383866;32;34350;-71
2023/05/24 13:17:46;;;;;;;;;;;;;;;27.68;37.08;100182.66;5395294;32;44152;-69
2023/05/24 13:20:49;;;;;;;;;;;;;;;27.43;37.71;100181.03;5411466;32;35896;-62
2023/05/24 13:23:52;;;;;;;;;;;;;;;27.60;36.87;100179.97;5382813;32;34631;-63
2023/05/24 13:26:56;;;;;;;;;;;;;;;27.39;37.57;100180.56;5410944;32;34092;-74
2023/05/24 13:29:58;;;;;;;;;;;;;;;27.04;38.16;100175.53;5390156;32;35682;-70
2023/05/24 13:33:02;;;;;;;;;;;;;;;27.00;37.84;100180.44;5401740;32;36624;-76
2023/05/24 13:55:06;;;;;;;;;;;;;;;28.36;35.57;100167.59;5392178;32;36608;-68
2023/05/24 13:58:08;;;;;;;;;;;;;;;27.81;36.10;100165.87;5391665;32;33046;-67
2023/05/24 14:01:12;;;;;;;;;;;;;;;26.89;37.76;100170.84;5395119;32;34168;-67
2023/05/24 14:11:51;;;;;;;;;;;;;;;27.48;36.43;100160.59;5410152;32;35119;-73
2023/05/24 14:14:53;;;;;;;;;;;;;;;26.59;38.17;100163.44;5399800;32;35889;-76
2023/05/24 14:18:06;;;;;;;;;;;;;;;26.90;38.03;100167.13;5410755;32;34548;-74
2023/05/24 14:21:08;;;;;;;;;;;;;;;26.60;38.26;100168.69;5397066;32;34635;-73
2023/05/24 14:24:10;;;;;;;;;;;;;;;26.09;39.40;100156.31;5393612;32;34818;-72
2023/05/24 14:27:13;;;;;;;;;;;;;;;26.76;38.17;100167.00;5390361;32;33176;-70
2023/05/24 14:30:15;;;;;;;;;;;;;;;26.76;38.36;100178.63;5391337;32;34324;-72
2023/05/24 14:33:17;;;;;;;;;;;;;;;26.38;39.12;100169.31;5390768;32;45462;-70
2023/05/24 14:36:19;;;;;;;;;;;;;;;26.92;38.28;100161.56;5387068;32;34188;-71
2023/05/24 14:39:21;;;;;;;;;;;;;;;26.37;39.25;100165.78;5376767;32;34855;-70
2023/05/24 14:42:24;;;;;;;;;;;;;;;25.73;40.28;100177.25;5410487;32;35497;-70
2023/05/24 14:45:26;;;;;;;;;;;;;;;26.93;38.08;100174.91;5388657;32;35543;-73
2023/05/24 14:48:28;;;;;;;;;;;;;;;26.51;38.40;100174.22;5378015;32;34812;-73
2023/05/24 14:51:31;;;;;;;;;;;;;;;26.33;38.88;100177.03;5417825;32;34917;-73
2023/05/24 14:54:33;;;;;;;;;;;;;;;26.01;39.76;100177.81;5402961;32;34713;-72
2023/05/24 14:57:35;;;;;;;;;;;;;;;26.16;39.75;100181.59;5398207;32;34324;-72
2023/05/24 15:00:37;;;;;;;;;;;;;;;25.27;41.86;100185.59;5379529;32;35319;-70
2023/05/24 15:03:39;;;;;;;;;;;;;;;25.95;40.66;100187.41;5406046;32;34364;-71
2023/05/24 15:06:42;;;;;;;;;;;;;;;26.30;39.57;100189.00;5401073;32;35661;-71
2023/05/24 15:09:44;;;;;;;;;;;;;;;26.02;40.14;100190.28;5403759;32;35486;-70
2023/05/24 15:12:47;;;;;;;;;;;;;;;26.55;38.79;100197.16;5411677;32;44463;-70
2023/05/24 15:15:49;;;;;;;;;;;;;;;25.91;40.00;100200.38;5394467;32;34203;-71
2023/05/24 15:18:51;;;;;;;;;;;;;;;26.38;38.94;100183.63;5397553;32;35488;-72
2023/05/24 15:21:53;;;;;;;;;;;;;;;25.54;40.72;100198.00;5385947;32;34320;-70
2023/05/24 15:24:55;;;;;;;;;;;;;;;26.19;39.03;100198.25;5408848;32;34169;-73
2023/05/24 15:27:57;;;;;;;;;;;;;;;25.59;40.33;100195.66;5415326;32;35130;-70
2023/05/24 15:31:00;;;;;;;;;;;;;;;26.20;39.22;100199.91;5407255;32;34792;-71
2023/05/24 15:34:03;;;;;;;;;;;;;;;25.68;40.41;100193.84;5414457;32;34644;-71
2023/05/24 15:37:05;;;;;;;;;;;;;;;25.08;40.63;100196.56;5350227;32;34255;-71
2023/05/24 15:40:11;;;;;;;;;;;;;;;25.66;40.07;100198.56;5408841;32;34313;-71
2023/05/24 15:43:16;;;;;;;;;;;;;;;24.96;41.60;100201.31;5386868;32;34919;-72
2023/05/24 15:46:21;;;;;;;;;;;;;;;25.38;41.02;100214.91;5398627;32;44336;-73
2023/05/24 15:49:24;;;;;;;;;;;;;;;26.13;39.55;100200.75;5370196;32;34892;-71
2023/05/24 15:52:26;;;;;;;;;;;;;;;25.25;41.07;100209.13;5408137;32;35086;-72
2023/05/24 15:55:28;;;;;;;;;;;;;;;25.22;41.51;100204.03;5424694;32;34160;-71
2023/05/24 15:58:30;;;;;;;;;;;;;;;25.42;41.30;100193.91;5402036;32;34170;-69
2023/05/24 16:01:32;;;;;;;;;;;;;;;25.10;41.51;100211.53;5399687;32;33165;-70
2023/05/24 16:04:34;;;;;;;;;;;;;;;25.37;40.79;100202.47;5399353;32;35382;-70